createdAt,value
2023-11-27T00:06:59.318Z,5.40
2023-11-27T00:13:59.688Z,5.40
2023-11-27T00:21:00.244Z,5.40
2023-11-27T00:28:00.678Z,5.40
2023-11-27T00:35:01.101Z,5.40
2023-11-27T00:42:01.570Z,5.40
2023-11-27T00:49:02.756Z,5.40
2023-11-27T00:56:03.531Z,5.50
2023-11-27T01:03:04.846Z,5.40
2023-11-27T01:10:05.769Z,5.50
2023-11-27T01:17:06.465Z,5.40
2023-11-27T01:24:07.182Z,5.50
2023-11-27T01:31:09.267Z,5.40
2023-11-27T01:38:09.909Z,5.40
2023-11-27T01:45:10.734Z,5.40
2023-11-27T01:52:11.303Z,5.40
2023-11-27T01:59:11.976Z,5.40
2023-11-27T02:06:12.303Z,5.50
2023-11-27T02:13:15.828Z,5.40
2023-11-27T02:20:15.949Z,5.40
2023-11-27T02:27:16.616Z,5.40
2023-11-27T02:34:18.544Z,5.40
2023-11-27T02:41:19.142Z,5.40
2023-11-27T02:48:19.540Z,5.30
2023-11-27T02:55:20.918Z,5.30
2023-11-27T03:02:22.299Z,5.20
2023-11-27T03:09:23.190Z,5.20
2023-11-27T03:16:24.957Z,5.20
2023-11-27T03:23:25.772Z,5.20
2023-11-27T03:30:26.393Z,5.20
2023-11-27T03:37:26.933Z,5.10
2023-11-27T03:44:27.727Z,5.10
2023-11-27T03:51:28.360Z,5.00
2023-11-27T03:58:28.870Z,5.00
2023-11-27T04:05:29.182Z,5.00
2023-11-27T04:12:33.706Z,5.00
2023-11-27T04:19:34.234Z,5.00
2023-11-27T04:26:34.618Z,4.90
2023-11-27T04:33:35.996Z,4.90
2023-11-27T04:40:36.410Z,4.80
2023-11-27T04:47:36.876Z,4.80
2023-11-27T04:54:39.223Z,4.80
2023-11-27T05:01:39.566Z,4.80
2023-11-27T05:08:40.345Z,4.80
2023-11-27T05:15:41.196Z,4.70
2023-11-27T05:22:41.593Z,4.70
2023-11-27T05:29:42.148Z,4.70
2023-11-27T05:36:43.012Z,4.60
2023-11-27T05:43:44.253Z,4.50
2023-11-27T05:50:44.894Z,4.50
2023-11-27T05:57:45.386Z,4.40
2023-11-27T06:04:46.602Z,4.40
2023-11-27T06:11:47.611Z,4.40
2023-11-27T06:18:47.794Z,4.40
2023-11-27T06:25:48.396Z,4.40
2023-11-27T06:32:48.862Z,4.30
2023-11-27T06:39:49.368Z,4.20
2023-11-27T06:46:50.109Z,4.10
2023-11-27T06:53:50.578Z,4.10
2023-11-27T07:00:51.005Z,4.10
2023-11-27T07:07:52.087Z,4.10
2023-11-27T07:14:52.600Z,4.00
2023-11-27T07:21:52.993Z,3.90
2023-11-27T07:28:54.964Z,3.80
2023-11-27T07:35:55.453Z,3.80
2023-11-27T07:42:56.159Z,3.80
2023-11-27T07:49:56.345Z,3.70
2023-11-27T07:56:56.924Z,3.70
2023-11-27T08:03:58.981Z,3.60
2023-11-27T08:10:59.702Z,3.60
2023-11-27T08:18:05.479Z,3.50
2023-11-27T08:25:05.895Z,3.60
2023-11-27T08:32:07.179Z,3.60
2023-11-27T08:39:11.222Z,3.60
2023-11-27T08:46:13.592Z,3.50
2023-11-27T08:53:14.008Z,3.50
2023-11-27T09:00:20.980Z,3.50
2023-11-27T09:07:21.503Z,3.50
2023-11-27T09:14:21.896Z,3.40
2023-11-27T09:21:22.297Z,3.40
2023-11-27T09:28:23.912Z,3.40
2023-11-27T09:35:24.876Z,3.40
2023-11-27T09:42:32.627Z,3.40
2023-11-27T09:49:49.000Z,3.40
2023-11-27T09:56:50.515Z,3.30
2023-11-27T10:03:53.166Z,3.30
2023-11-27T10:10:54.552Z,3.30
2023-11-27T10:17:57.343Z,3.30
2023-11-27T10:25:03.208Z,3.30
2023-11-27T10:32:04.373Z,3.30
2023-11-27T10:39:09.973Z,3.30
2023-11-27T10:46:11.026Z,3.30
2023-11-27T10:53:14.510Z,3.40
2023-11-27T11:00:19.900Z,3.40
2023-11-27T11:07:52.083Z,3.40
2023-11-27T11:14:53.960Z,3.40
2023-11-27T11:22:12.340Z,3.50
2023-11-27T11:29:24.880Z,3.50
2023-11-27T11:36:35.074Z,3.50
2023-11-27T11:43:42.963Z,3.50
2023-11-27T11:50:43.660Z,3.50
2023-11-27T11:57:45.515Z,3.50
2023-11-27T12:04:45.976Z,3.50
2023-11-27T12:11:47.610Z,3.50
2023-11-27T12:18:52.120Z,3.50
2023-11-27T12:25:53.700Z,3.50
2023-11-27T12:32:54.414Z,3.50
2023-11-27T12:39:54.780Z,3.50
2023-11-27T12:46:59.733Z,3.50
2023-11-27T12:54:05.511Z,3.60
2023-11-27T13:01:06.236Z,3.60
2023-11-27T13:08:07.475Z,3.60
2023-11-27T13:15:11.534Z,3.70
2023-11-27T13:22:15.808Z,3.70
2023-11-27T13:29:19.064Z,3.70
2023-11-27T13:36:19.691Z,3.70
2023-11-27T13:43:20.299Z,3.70
2023-11-27T13:50:21.017Z,3.70
2023-11-27T13:57:29.048Z,3.60
2023-11-27T14:04:29.743Z,3.60
2023-11-27T14:11:49.340Z,3.60
2023-11-27T14:19:09.736Z,3.60
2023-11-27T14:26:10.135Z,3.60
2023-11-27T14:33:11.044Z,3.50
2023-11-27T14:40:20.816Z,3.50
2023-11-27T14:47:25.371Z,3.50
2023-11-27T14:54:27.241Z,3.40
2023-11-27T15:01:34.360Z,3.40
2023-11-27T15:08:34.932Z,3.40
2023-11-27T15:15:35.578Z,3.40
2023-11-27T15:22:36.145Z,3.40
2023-11-27T15:29:36.718Z,3.40
2023-11-27T15:36:37.788Z,3.40
2023-11-27T15:43:40.397Z,3.40
2023-11-27T15:50:41.193Z,3.40
2023-11-27T15:57:46.054Z,3.40
2023-11-27T16:04:47.458Z,3.40
2023-11-27T16:11:48.509Z,3.40
2023-11-27T16:18:49.150Z,3.40
2023-11-27T16:25:50.490Z,3.40
2023-11-27T16:32:52.062Z,3.40
2023-11-27T16:39:53.613Z,3.50
2023-11-27T16:46:55.695Z,3.40
2023-11-27T16:53:56.388Z,3.40
2023-11-27T17:00:57.125Z,3.40
2023-11-27T17:07:57.805Z,3.50
2023-11-27T17:14:58.264Z,3.50
2023-11-27T17:21:58.694Z,3.50
2023-11-27T17:28:59.316Z,3.50
2023-11-27T17:36:00.874Z,3.50
2023-11-27T17:43:02.097Z,3.60
2023-11-27T17:50:05.359Z,3.50
2023-11-27T17:57:07.117Z,3.60
2023-11-27T18:04:09.115Z,3.70
2023-11-27T18:11:11.560Z,3.80
2023-11-27T18:18:11.780Z,3.80
2023-11-27T18:25:15.013Z,3.80
2023-11-27T18:32:19.139Z,3.70
2023-11-27T18:39:22.758Z,3.70
2023-11-27T18:46:25.238Z,3.70
2023-11-27T18:53:26.275Z,3.70
2023-11-27T19:00:26.756Z,3.70
2023-11-27T19:07:27.601Z,3.60
2023-11-27T19:14:28.657Z,3.70
2023-11-27T19:21:29.169Z,3.70
2023-11-27T19:28:32.706Z,3.70
2023-11-27T19:35:33.406Z,3.70
2023-11-27T19:42:33.961Z,3.70
2023-11-27T19:49:36.723Z,3.70
2023-11-27T19:56:38.378Z,3.70
2023-11-27T20:03:38.793Z,3.70
2023-11-27T20:10:39.356Z,3.80
2023-11-27T20:17:40.942Z,3.80
2023-11-27T20:24:41.752Z,3.70
2023-11-27T20:31:42.403Z,3.80
2023-11-27T20:38:42.976Z,3.80
2023-11-27T20:45:44.000Z,3.80
2023-11-27T20:52:44.558Z,3.80
2023-11-27T20:59:44.923Z,3.80
2023-11-27T21:06:45.269Z,3.70
2023-11-27T21:13:45.882Z,3.70
2023-11-27T21:20:47.264Z,3.60
2023-11-27T21:27:51.698Z,3.70
2023-11-27T21:34:52.555Z,3.60
2023-11-27T21:41:52.840Z,3.70
2023-11-27T21:48:53.452Z,3.70
2023-11-27T21:55:53.946Z,3.70
2023-11-27T22:02:54.520Z,3.60
2023-11-27T22:09:54.949Z,3.50
2023-11-27T22:16:55.434Z,3.50
2023-11-27T22:23:55.808Z,3.40
2023-11-27T22:30:56.327Z,3.30
2023-11-27T22:37:56.723Z,3.30
2023-11-27T22:44:57.055Z,3.30
2023-11-27T22:51:57.791Z,3.20
2023-11-27T22:59:06.974Z,3.20
2023-11-27T23:06:25.475Z,3.10
2023-11-27T23:13:34.064Z,3.00
2023-11-27T23:20:34.474Z,2.90
2023-11-27T23:27:35.581Z,2.80
2023-11-27T23:34:35.973Z,2.70
2023-11-27T23:41:36.598Z,2.70
2023-11-27T23:48:36.947Z,2.60
2023-11-27T23:55:39.095Z,2.50
